Time;durP1;ratioP1;P1;durP2;ratioP2;P2;SDS_P1;SDS_P2;PMS_P1;PMS_P2;Temp;Humidity;BMP_temperature;BMP_pressure;BME280_temperature;BME280_humidity;BME280_pressure;Samples;Min_cycle;Max_cycle;Signal;HPM_P1;HPM_P2
2022/04/09 00:00:23;;;;;;;6.20;5.90;;;;;;;10.96;60.09;99344.63;5025930;28;20113;-70
2022/04/09 00:02:48;;;;;;;6.60;6.30;;;;;;;11.08;58.90;99350.94;5012701;28;20673;-69
2022/04/09 00:05:15;;;;;;;6.72;6.43;;;;;;;11.16;58.49;99344.59;4994225;28;20022;-69
2022/04/09 00:07:41;;;;;;;6.50;6.20;;;;;;;11.16;58.56;99340.09;4993106;28;20379;-69
2022/04/09 00:10:08;;;;;;;6.72;6.43;;;;;;;11.22;58.88;99349.88;4993212;28;20030;-69
2022/04/09 00:12:34;;;;;;;6.65;6.35;;;;;;;11.23;58.93;99353.34;4992533;28;20029;-70
2022/04/09 00:15:00;;;;;;;6.60;6.30;;;;;;;11.16;59.00;99349.91;5034649;28;20026;-69
2022/04/09 00:17:26;;;;;;;6.65;6.35;;;;;;;11.21;58.94;99350.09;4992646;28;20022;-69
2022/04/09 00:19:52;;;;;;;6.20;5.90;;;;;;;11.21;59.18;99350.09;4974581;28;20027;-69
2022/04/09 00:22:18;;;;;;;6.70;6.40;;;;;;;11.28;59.24;99349.06;4990320;28;20036;-69
2022/04/09 00:24:43;;;;;;;6.53;6.22;;;;;;;11.25;59.10;99352.16;5010666;28;20026;-69
2022/04/09 00:27:09;;;;;;;6.40;6.10;;;;;;;11.35;59.19;99354.34;4997201;28;20069;-70
2022/04/09 00:29:34;;;;;;;6.40;6.10;;;;;;;11.34;58.84;99344.75;4992234;28;20026;-69
2022/04/09 00:32:00;;;;;;;6.40;6.10;;;;;;;11.35;59.60;99357.81;5023950;28;20394;-69
2022/04/09 00:34:26;;;;;;;6.38;6.07;;;;;;;11.39;59.48;99352.13;5001859;28;20030;-70
2022/04/09 00:36:52;;;;;;;6.90;6.60;;;;;;;11.50;59.05;99364.72;4991988;28;20473;-69
2022/04/09 00:39:17;;;;;;;6.32;6.03;;;;;;;11.59;58.57;99361.63;4979641;28;20093;-69
2022/04/09 00:41:47;;;;;;;6.30;6.00;;;;;;;11.64;58.16;99353.03;4972652;28;20037;-69
2022/04/09 00:44:20;;;;;;;6.70;6.40;;;;;;;11.70;58.37;99360.19;4984784;28;20064;-69
2022/04/09 00:46:46;;;;;;;6.40;6.10;;;;;;;11.75;57.99;99348.91;4992433;28;20022;-69
2022/04/09 00:49:13;;;;;;;6.50;6.20;;;;;;;11.80;58.00;99344.63;4991911;28;20034;-70
2022/04/09 00:51:44;;;;;;;6.40;6.10;;;;;;;11.90;57.73;99349.50;4992450;28;20027;-69
2022/04/09 00:54:12;;;;;;;6.60;6.30;;;;;;;11.99;57.26;99352.72;4992266;28;20084;-69
2022/04/09 00:56:38;;;;;;;6.47;6.18;;;;;;;12.00;57.16;99346.38;4986690;28;20122;-69
2022/04/09 00:59:06;;;;;;;6.60;6.30;;;;;;;12.04;57.13;99344.91;4972593;28;20061;-68
2022/04/09 01:01:34;;;;;;;6.45;6.15;;;;;;;12.12;56.88;99352.66;4998096;28;20030;-68
2022/04/09 01:04:00;;;;;;;6.30;6.00;;;;;;;12.16;56.51;99351.19;5011933;28;20572;-68
2022/04/09 01:06:25;;;;;;;6.30;6.00;;;;;;;12.06;57.31;99356.16;5012079;28;20033;-68
2022/04/09 01:08:51;;;;;;;6.50;6.20;;;;;;;12.13;57.53;99351.63;5000131;28;20550;-68
2022/04/09 01:11:17;;;;;;;6.40;6.10;;;;;;;12.22;57.01;99341.53;5002076;28;20073;-69
2022/04/09 01:13:46;;;;;;;6.45;6.15;;;;;;;12.01;58.89;99346.16;5000628;28;20034;-68
2022/04/09 01:16:12;;;;;;;6.40;6.10;;;;;;;12.14;57.92;99345.28;5011795;28;20032;-69
2022/04/09 01:18:38;;;;;;;6.53;6.22;;;;;;;12.07;58.00;99344.50;4990660;28;20418;-68
2022/04/09 01:21:04;;;;;;;6.32;6.05;;;;;;;12.20;57.05;99335.63;4972534;28;20113;-68
2022/04/09 01:23:31;;;;;;;6.35;6.05;;;;;;;12.20;58.59;99340.97;4988582;28;20026;-68
2022/04/09 01:25:59;;;;;;;6.60;6.30;;;;;;;12.06;58.45;99334.91;4991853;28;20030;-68
2022/04/09 01:28:25;;;;;;;6.40;6.10;;;;;;;12.19;57.70;99334.78;4991920;28;20488;-68
2022/04/09 01:30:51;;;;;;;6.40;6.10;;;;;;;12.16;57.92;99320.09;4990879;28;20088;-68
2022/04/09 01:33:17;;;;;;;6.60;6.30;;;;;;;12.19;57.36;99318.84;5000258;28;20026;-68
2022/04/09 01:35:43;;;;;;;6.70;6.40;;;;;;;12.27;56.87;99310.63;5026994;28;20155;-68
2022/04/09 01:38:09;;;;;;;6.50;6.20;;;;;;;12.34;56.73;99311.41;4990056;28;20027;-68
2022/04/09 01:40:34;;;;;;;6.72;6.43;;;;;;;12.09;59.29;99319.31;4991782;28;20023;-68
2022/04/09 01:43:00;;;;;;;6.38;6.07;;;;;;;11.77;59.88;99299.84;4992037;28;20034;-68
2022/04/09 01:45:27;;;;;;;6.40;6.10;;;;;;;11.72;60.50;99297.00;4991138;28;20031;-69
2022/04/09 01:47:53;;;;;;;6.60;6.30;;;;;;;11.63;60.72;99300.94;4990958;28;20049;-68
2022/04/09 01:50:21;;;;;;;6.60;6.30;;;;;;;11.58;61.83;99303.41;4978731;28;20397;-69
2022/04/09 01:52:46;;;;;;;6.35;6.05;;;;;;;11.41;61.77;99299.59;4996003;28;20023;-68
2022/04/09 01:55:12;;;;;;;6.50;6.20;;;;;;;11.33;61.67;99288.19;4995252;28;20034;-68
2022/04/09 01:57:38;;;;;;;6.90;6.60;;;;;;;11.47;61.92;99288.16;4993736;28;20081;-68
2022/04/09 02:00:10;;;;;;;6.45;6.15;;;;;;;11.57;62.23;99293.81;4990101;28;20043;-68
2022/04/09 02:02:35;;;;;;;6.47;6.18;;;;;;;11.41;62.33;99278.38;5014591;28;20428;-69
2022/04/09 02:05:02;;;;;;;6.40;6.10;;;;;;;11.29;62.72;99284.31;5003822;28;20037;-70
2022/04/09 02:07:28;;;;;;;6.38;6.07;;;;;;;11.17;63.09;99275.38;4994963;28;20025;-70
2022/04/09 02:09:54;;;;;;;6.80;6.50;;;;;;;11.03;63.86;99282.56;4993754;28;20025;-68
2022/04/09 02:12:20;;;;;;;6.22;5.93;;;;;;;11.07;63.74;99282.94;4994865;28;20393;-68
2022/04/09 02:14:46;;;;;;;6.30;6.00;;;;;;;11.05;63.94;99277.03;5005363;28;20105;-68
2022/04/09 02:17:12;;;;;;;6.63;6.32;;;;;;;10.98;64.66;99269.09;5031127;28;20061;-68
2022/04/09 02:19:38;;;;;;;6.72;6.43;;;;;;;11.06;63.83;99260.91;4979900;28;20594;-68
2022/04/09 02:22:04;;;;;;;6.63;6.32;;;;;;;11.07;64.22;99253.75;4977017;28;20438;-68
2022/04/09 02:24:29;;;;;;;6.78;6.47;;;;;;;11.11;64.60;99257.63;4994817;28;20030;-69
2022/04/09 02:26:55;;;;;;;6.50;6.20;;;;;;;11.03;64.52;99260.53;5026068;28;20018;-68
2022/04/09 02:29:20;;;;;;;6.68;6.38;;;;;;;11.08;64.49;99266.81;4994332;28;20050;-68
2022/04/09 02:31:46;;;;;;;6.50;6.20;;;;;;;11.12;64.49;99261.91;4994975;28;20386;-68
2022/04/09 02:34:11;;;;;;;6.60;6.30;;;;;;;11.13;65.04;99262.72;5011572;28;20026;-69
2022/04/09 02:36:38;;;;;;;6.53;6.22;;;;;;;11.07;65.41;99259.06;5013570;28;20025;-69
2022/04/09 02:39:04;;;;;;;6.20;5.90;;;;;;;11.05;65.54;99238.06;4993886;28;20452;-68
2022/04/09 02:41:29;;;;;;;6.50;6.20;;;;;;;11.10;65.78;99245.41;4994238;28;20022;-69
2022/04/09 02:43:55;;;;;;;6.30;6.00;;;;;;;11.07;65.59;99245.78;4995029;28;20045;-68
2022/04/09 02:46:21;;;;;;;6.43;6.13;;;;;;;11.09;65.56;99241.13;4994379;28;20108;-69
2022/04/09 02:48:47;;;;;;;7.20;6.90;;;;;;;11.10;65.36;99231.31;4987363;28;20406;-69
2022/04/09 02:51:13;;;;;;;6.32;6.03;;;;;;;11.12;65.42;99224.75;4994210;28;20038;-69
2022/04/09 02:53:38;;;;;;;6.32;6.03;;;;;;;11.00;65.56;99213.97;4992835;28;20133;-68
2022/04/09 02:56:04;;;;;;;6.88;6.57;;;;;;;10.96;66.37;99217.28;4993883;28;20037;-69
2022/04/09 02:58:30;;;;;;;6.47;6.18;;;;;;;10.94;66.27;99204.22;4993771;28;20095;-69
2022/04/09 03:00:55;;;;;;;6.55;6.25;;;;;;;10.94;66.47;99209.53;5000320;28;20022;-68
2022/04/09 03:03:21;;;;;;;6.03;5.82;;;;;;;10.98;66.47;99201.94;5012797;28;20520;-67
2022/04/09 03:05:47;;;;;;;6.30;6.00;;;;;;;10.95;66.26;99205.84;5013553;28;20026;-68
2022/04/09 03:08:12;;;;;;;6.82;6.53;;;;;;;10.96;66.47;99209.31;4993831;28;20414;-68
2022/04/09 03:10:40;;;;;;;6.97;6.68;;;;;;;10.92;66.67;99205.44;4995899;28;20028;-68
2022/04/09 03:13:05;;;;;;;6.40;6.10;;;;;;;10.92;66.66;99203.59;5013395;28;20029;-69
2022/04/09 03:15:31;;;;;;;6.53;6.22;;;;;;;10.87;66.87;99199.94;5032738;28;20026;-69
2022/04/09 03:17:56;;;;;;;6.63;6.32;;;;;;;10.84;66.74;99203.81;4992939;28;20034;-69
2022/04/09 03:20:22;;;;;;;6.22;5.93;;;;;;;10.81;67.34;99198.94;4991941;28;20031;-69
2022/04/09 03:22:48;;;;;;;6.00;5.80;;;;;;;11.01;66.33;99201.53;4991425;28;20038;-69
2022/04/09 03:25:15;;;;;;;6.30;6.00;;;;;;;10.93;66.60;99204.41;4993428;28;20050;-68
2022/04/09 03:27:41;;;;;;;6.43;6.13;;;;;;;11.03;66.59;99204.78;4993576;28;20033;-68
2022/04/09 03:30:08;;;;;;;6.45;6.15;;;;;;;10.92;66.68;99197.47;4993391;28;20022;-69
2022/04/09 03:32:36;;;;;;;6.60;6.30;;;;;;;10.94;66.76;99206.88;4997126;28;20041;-70
2022/04/09 03:35:02;;;;;;;6.03;5.82;;;;;;;10.96;66.06;99180.94;4995728;28;20030;-70
2022/04/09 03:37:28;;;;;;;6.60;6.30;;;;;;;11.01;66.14;99185.59;4992328;28;20030;-68
2022/04/09 03:39:53;;;;;;;6.82;6.53;;;;;;;11.08;65.85;99181.06;4992467;28;20030;-71
2022/04/09 03:42:19;;;;;;;6.40;6.10;;;;;;;11.14;65.26;99188.19;5005348;28;20018;-69
2022/04/09 03:44:44;;;;;;;6.68;6.38;;;;;;;11.22;64.65;99181.84;5024786;28;20057;-69
2022/04/09 03:47:10;;;;;;;6.70;6.40;;;;;;;11.26;64.67;99193.69;5000089;28;20013;-69
2022/04/09 03:49:35;;;;;;;6.30;6.00;;;;;;;11.09;65.24;99180.06;4992796;28;20037;-68
2022/04/09 03:52:01;;;;;;;6.80;6.50;;;;;;;11.18;65.34;99178.81;4993620;28;20022;-69
2022/04/09 03:54:26;;;;;;;6.57;6.28;;;;;;;11.16;65.07;99180.84;4991775;28;20117;-69
2022/04/09 03:56:53;;;;;;;6.38;6.07;;;;;;;11.12;65.34;99182.28;5000924;28;20030;-68
2022/04/09 03:59:19;;;;;;;6.20;5.93;;;;;;;11.15;65.20;99183.69;5026617;28;20415;-68
2022/04/09 04:01:47;;;;;;;6.72;6.43;;;;;;;11.22;65.08;99181.84;5001266;28;20021;-68
2022/04/09 04:04:13;;;;;;;6.32;6.03;;;;;;;11.24;65.17;99185.13;4991611;28;20030;-68
2022/04/09 04:06:43;;;;;;;6.60;6.30;;;;;;;11.19;65.49;99180.44;4992828;28;20072;-69
2022/04/09 04:09:09;;;;;;;6.95;6.65;;;;;;;11.18;65.62;99183.31;5011159;28;20076;-69
2022/04/09 04:11:34;;;;;;;6.50;6.20;;;;;;;11.30;64.87;99190.38;4993181;28;20026;-69
2022/04/09 04:14:00;;;;;;;6.32;6.03;;;;;;;11.18;65.64;99197.38;5003648;28;20040;-69
2022/04/09 04:16:25;;;;;;;6.35;6.05;;;;;;;11.30;64.94;99195.69;4992612;28;20043;-69
2022/04/09 04:18:51;;;;;;;6.35;6.05;;;;;;;11.34;64.93;99202.19;4995633;28;20084;-69
2022/04/09 04:21:16;;;;;;;6.45;6.15;;;;;;;11.40;64.44;99202.38;4991292;28;20061;-69
2022/04/09 04:23:42;;;;;;;7.30;7.00;;;;;;;11.43;64.75;99196.66;4992212;28;20057;-70
2022/04/09 04:26:07;;;;;;;6.90;6.60;;;;;;;11.35;64.89;99198.50;4992383;28;20085;-68
2022/04/09 04:28:33;;;;;;;6.30;6.00;;;;;;;11.34;64.76;99199.53;5000795;28;20474;-69
2022/04/09 04:30:58;;;;;;;6.97;6.68;;;;;;;11.44;64.60;99208.88;5005794;28;20029;-69
2022/04/09 04:33:24;;;;;;;6.60;6.30;;;;;;;11.39;64.72;99193.63;5003781;28;20041;-69
2022/04/09 04:35:50;;;;;;;6.60;6.30;;;;;;;11.40;64.85;99195.25;5006094;28;20022;-69
2022/04/09 04:38:16;;;;;;;6.93;6.63;;;;;;;11.36;65.12;99199.34;4991492;28;20556;-69
2022/04/09 04:40:41;;;;;;;6.85;6.55;;;;;;;11.38;65.28;99188.50;4991977;28;20027;-69
2022/04/09 04:43:07;;;;;;;7.28;6.97;;;;;;;11.35;65.52;99189.75;5023759;28;20093;-70
2022/04/09 04:45:32;;;;;;;6.45;6.15;;;;;;;11.51;64.85;99193.72;4996191;28;20030;-69
2022/04/09 04:47:58;;;;;;;6.53;6.22;;;;;;;11.43;65.39;99186.84;4998592;28;20037;-68
2022/04/09 04:50:24;;;;;;;7.13;6.82;;;;;;;11.49;65.08;99169.25;4992261;28;20065;-68
2022/04/09 04:52:50;;;;;;;6.35;6.05;;;;;;;11.66;64.80;99177.50;4973289;28;20105;-69
2022/04/09 04:55:16;;;;;;;7.03;6.72;;;;;;;11.66;64.77;99185.47;5003921;28;20037;-70
2022/04/09 04:57:46;;;;;;;6.68;6.38;;;;;;;11.66;64.83;99183.63;4973083;28;20534;-69
2022/04/09 05:00:15;;;;;;;6.40;6.10;;;;;;;11.79;64.64;99188.84;4992524;28;20398;-69
2022/04/09 05:02:41;;;;;;;6.90;6.60;;;;;;;11.84;64.50;99185.59;5000511;28;20038;-69
2022/04/09 05:05:07;;;;;;;6.60;6.30;;;;;;;11.73;65.36;99187.06;5005975;28;20489;-69
2022/04/09 05:07:52;;;;;;;6.68;6.38;;;;;;;11.78;65.11;99189.06;5042447;28;20033;-69
2022/04/09 05:10:20;;;;;;;6.47;6.18;;;;;;;11.85;65.12;99185.38;5010590;28;20052;-68
2022/04/09 05:12:47;;;;;;;6.63;6.32;;;;;;;12.06;65.02;99183.38;4992786;28;20026;-68
2022/04/09 05:15:15;;;;;;;6.60;6.30;;;;;;;12.21;64.84;99175.09;4992395;28;20681;-69
2022/04/09 05:17:41;;;;;;;6.40;6.10;;;;;;;12.07;65.56;99169.88;5023232;28;20030;-69
2022/04/09 05:20:09;;;;;;;6.90;6.60;;;;;;;11.86;67.86;99171.06;4989706;28;20026;-69
2022/04/09 05:22:37;;;;;;;6.65;6.35;;;;;;;12.08;67.68;99163.53;4996838;28;20058;-68
2022/04/09 05:25:04;;;;;;;7.30;7.00;;;;;;;12.06;68.30;99160.28;4993650;28;20057;-69
2022/04/09 05:27:30;;;;;;;6.45;6.15;;;;;;;12.12;68.76;99154.09;5015016;28;20044;-68
2022/04/09 05:29:56;;;;;;;6.60;6.30;;;;;;;12.41;67.94;99152.59;5014925;28;20061;-69
2022/04/09 05:32:22;;;;;;;6.30;6.00;;;;;;;12.16;68.88;99149.94;5009048;28;20552;-68
2022/04/09 05:34:48;;;;;;;7.15;6.85;;;;;;;12.35;68.54;99134.84;5012420;28;20041;-68
2022/04/09 05:37:14;;;;;;;7.07;6.78;;;;;;;12.41;68.64;99138.44;5000484;28;20046;-68
2022/04/09 05:39:41;;;;;;;6.65;6.35;;;;;;;12.37;69.26;99137.28;5014842;28;20034;-69
2022/04/09 05:42:07;;;;;;;6.50;6.20;;;;;;;12.54;69.32;99133.00;5006190;28;20030;-68
2022/04/09 05:44:32;;;;;;;6.57;6.28;;;;;;;12.78;68.88;99141.13;5046722;28;20053;-69
2022/04/09 05:47:00;;;;;;;6.50;6.20;;;;;;;12.90;68.51;99144.66;5014988;28;20080;-68
2022/04/09 05:49:26;;;;;;;6.70;6.40;;;;;;;12.81;68.76;99146.81;5002035;28;20425;-69
2022/04/09 05:51:51;;;;;;;6.45;6.15;;;;;;;12.99;68.49;99143.31;4995613;28;20014;-69
2022/04/09 05:54:17;;;;;;;6.90;6.60;;;;;;;13.61;65.06;99145.81;5004736;28;20026;-68
2022/04/09 05:56:42;;;;;;;6.70;6.40;;;;;;;13.64;65.14;99140.00;4995351;28;20521;-69
2022/04/09 05:59:08;;;;;;;7.15;6.85;;;;;;;13.47;65.85;99130.00;5004954;28;20108;-69
2022/04/09 06:01:34;;;;;;;6.65;6.35;;;;;;;13.48;65.58;99125.50;5005737;28;20570;-68
2022/04/09 06:03:59;;;;;;;6.55;6.25;;;;;;;14.33;61.89;99130.44;5014680;28;20440;-69
2022/04/09 06:06:25;;;;;;;7.03;6.72;;;;;;;13.86;64.27;99122.44;5008712;28;20034;-69
2022/04/09 06:08:51;;;;;;;7.43;7.13;;;;;;;14.34;63.10;99119.53;5000526;28;20021;-68
2022/04/09 06:11:16;;;;;;;6.60;6.30;;;;;;;14.42;62.89;99126.38;4997602;28;20022;-68
2022/04/09 06:13:42;;;;;;;6.90;6.60;;;;;;;15.14;60.35;99134.03;4994881;28;20033;-69
2022/04/09 06:16:09;;;;;;;6.57;6.28;;;;;;;15.19;60.44;99134.09;4994729;28;20393;-69
2022/04/09 06:18:38;;;;;;;6.80;6.50;;;;;;;15.11;60.48;99139.81;4994353;28;20406;-69
2022/04/09 06:21:04;;;;;;;6.57;6.28;;;;;;;15.31;59.01;99144.75;4994632;28;20032;-70
2022/04/09 06:23:30;;;;;;;7.25;6.95;;;;;;;14.87;60.90;99147.91;4995446;28;20117;-69
2022/04/09 06:25:55;;;;;;;7.00;6.70;;;;;;;15.59;59.23;99147.38;5005482;28;20105;-68
2022/04/09 06:28:21;;;;;;;6.43;6.13;;;;;;;16.24;56.63;99144.19;5002510;28;20026;-69
2022/04/09 06:30:46;;;;;;;6.80;6.50;;;;;;;16.12;57.21;99145.34;4997592;28;20026;-69
2022/04/09 06:33:12;;;;;;;6.78;6.47;;;;;;;15.87;56.96;99137.72;5003441;28;20025;-69
2022/04/09 06:35:37;;;;;;;7.07;6.78;;;;;;;16.10;56.38;99137.56;5014030;28;20033;-70
2022/04/09 06:38:03;;;;;;;6.75;6.45;;;;;;;15.97;57.62;99137.88;4998778;28;20036;-69
2022/04/09 06:40:28;;;;;;;6.78;6.47;;;;;;;16.67;55.51;99145.31;4999928;28;20165;-69
2022/04/09 06:42:56;;;;;;;6.78;6.47;;;;;;;17.05;53.65;99143.66;5013660;28;20041;-69
2022/04/09 06:45:21;;;;;;;7.15;6.85;;;;;;;17.36;52.88;99145.59;5010804;28;20018;-69
2022/04/09 06:47:47;;;;;;;7.57;7.28;;;;;;;16.16;55.88;99141.94;4993966;28;20040;-69
2022/04/09 06:50:13;;;;;;;7.15;6.85;;;;;;;16.74;54.70;99142.47;4993932;28;20084;-69
2022/04/09 06:52:40;;;;;;;7.38;7.07;;;;;;;16.75;54.96;99125.38;4995649;28;20022;-69
2022/04/09 06:55:09;;;;;;;7.18;6.88;;;;;;;16.69;55.76;99131.69;5013879;28;20081;-70
2022/04/09 06:57:38;;;;;;;7.30;7.00;;;;;;;17.49;52.96;99122.94;4994326;28;20064;-72
2022/04/09 07:00:07;;;;;;;7.40;7.10;;;;;;;17.06;53.82;99123.84;4993810;28;20038;-71
2022/04/09 07:02:33;;;;;;;7.07;6.78;;;;;;;16.49;55.68;99122.31;5000870;28;20032;-71
2022/04/09 07:04:59;;;;;;;6.68;6.38;;;;;;;16.54;55.56;99111.69;4998284;28;20070;-71
2022/04/09 07:07:27;;;;;;;7.35;7.05;;;;;;;18.01;52.76;99113.47;4995653;28;20057;-71
2022/04/09 07:10:06;;;;;;;7.05;6.75;;;;;;;18.07;50.79;99105.22;4998438;28;20113;-71
2022/04/09 07:12:32;;;;;;;6.75;6.45;;;;;;;17.82;52.03;99110.38;4992640;28;20057;-71
2022/04/09 07:14:57;;;;;;;6.90;6.60;;;;;;;18.22;51.22;99108.00;5003901;28;20026;-71
2022/04/09 07:17:24;;;;;;;7.25;6.95;;;;;;;19.77;47.20;99103.66;4993668;28;20069;-71
2022/04/09 07:19:50;;;;;;;6.80;6.50;;;;;;;20.22;45.09;99104.69;5025180;28;20100;-71
2022/04/09 07:22:16;;;;;;;7.30;7.00;;;;;;;21.38;41.83;99105.31;5025205;28;20050;-72
2022/04/09 07:24:41;;;;;;;7.30;7.00;;;;;;;22.02;39.87;99119.66;4993678;28;20437;-71
2022/04/09 07:27:07;;;;;;;7.22;6.93;;;;;;;22.92;38.81;99118.22;5001809;28;20021;-69
2022/04/09 07:29:32;;;;;;;7.40;7.10;;;;;;;24.10;36.07;99099.09;4995348;28;20098;-69
2022/04/09 07:31:58;;;;;;;7.10;6.80;;;;;;;26.42;32.28;99099.59;5009412;28;20495;-70
2022/04/09 07:34:23;;;;;;;7.22;6.93;;;;;;;27.39;30.31;99106.84;4994070;28;20104;-70
2022/04/09 07:36:49;;;;;;;7.13;6.82;;;;;;;28.37;28.44;99100.63;4974621;28;20026;-70
2022/04/09 07:39:14;;;;;;;7.38;7.07;;;;;;;29.98;25.98;99107.53;4973987;28;20026;-70
2022/04/09 07:41:40;;;;;;;7.20;6.90;;;;;;;29.06;26.50;99091.25;4974247;28;20031;-69
2022/04/09 07:44:05;;;;;;;7.20;6.90;;;;;;;28.41;27.50;99098.03;4994724;28;20033;-70
2022/04/09 07:46:31;;;;;;;7.47;7.18;;;;;;;30.13;26.17;99087.75;5003075;28;20068;-68
2022/04/09 07:48:57;;;;;;;7.45;7.15;;;;;;;30.98;23.95;99095.16;4986311;28;20109;-70
2022/04/09 07:51:22;;;;;;;7.50;7.20;;;;;;;31.05;23.41;99083.63;4998112;28;20030;-72
2022/04/09 07:53:48;;;;;;;7.40;7.10;;;;;;;29.82;24.34;99074.56;4981433;28;20030;-71
2022/04/09 07:56:13;;;;;;;7.15;6.85;;;;;;;29.69;24.38;99073.72;5004718;28;20031;-72
2022/04/09 07:58:39;;;;;;;7.20;6.90;;;;;;;28.80;25.17;99070.38;4998139;28;20045;-72
2022/04/09 08:01:04;;;;;;;6.97;6.68;;;;;;;29.50;23.87;99067.13;4996385;28;20512;-73
2022/04/09 08:03:31;;;;;;;7.10;6.80;;;;;;;27.91;25.44;99071.38;4994232;28;20056;-72
2022/04/09 08:05:57;;;;;;;7.05;6.75;;;;;;;28.71;24.61;99060.63;4997361;28;20042;-71
2022/04/09 08:08:22;;;;;;;7.40;7.10;;;;;;;26.36;27.69;99045.63;4990385;28;20575;-70
2022/04/09 08:10:48;;;;;;;7.50;7.20;;;;;;;28.11;26.04;99045.34;4997965;28;20117;-71
2022/04/09 08:13:13;;;;;;;7.18;6.88;;;;;;;28.63;24.99;99035.78;5006748;28;20532;-71
2022/04/09 08:15:39;;;;;;;7.30;7.00;;;;;;;25.79;28.77;99023.84;4997189;28;20022;-73
2022/04/09 08:18:05;;;;;;;6.93;6.63;;;;;;;25.79;29.08;99026.53;4992433;28;20105;-71
2022/04/09 08:20:31;;;;;;;7.78;7.47;;;;;;;24.74;30.61;99026.81;5035706;28;20030;-70
2022/04/09 08:22:56;;;;;;;7.30;7.00;;;;;;;23.96;31.49;99006.97;4994537;28;20100;-71
2022/04/09 08:25:22;;;;;;;7.65;7.35;;;;;;;23.16;33.10;99016.16;4994359;28;20069;-71
2022/04/09 08:27:51;;;;;;;7.30;7.00;;;;;;;23.50;32.37;99004.22;5020461;28;20034;-70
2022/04/09 08:30:17;;;;;;;7.53;7.22;;;;;;;24.82;31.07;99017.94;4997677;28;20064;-68
2022/04/09 08:32:44;;;;;;;7.60;7.30;;;;;;;24.54;31.35;99017.22;4996194;28;20049;-68
2022/04/09 08:35:09;;;;;;;7.50;7.20;;;;;;;25.92;29.67;99019.41;5006217;28;20029;-69
2022/04/09 08:37:35;;;;;;;7.18;6.88;;;;;;;25.13;30.21;99014.59;5021723;28;20081;-66
2022/04/09 08:40:02;;;;;;;7.45;7.15;;;;;;;24.90;30.71;99008.28;4994401;28;20099;-67
2022/04/09 08:42:30;;;;;;;7.38;7.07;;;;;;;25.25;29.87;99009.38;4993152;28;20036;-67
2022/04/09 08:44:55;;;;;;;7.80;7.50;;;;;;;25.69;29.52;99005.03;4996751;28;20512;-70
2022/04/09 08:47:23;;;;;;;7.85;7.55;;;;;;;25.60;30.41;99013.13;4989932;28;20058;-69
2022/04/09 08:49:48;;;;;;;8.05;7.75;;;;;;;25.41;30.03;99001.66;4991296;28;20038;-69
2022/04/09 08:52:16;;;;;;;7.00;6.70;;;;;;;25.79;29.40;99005.63;4989355;28;20030;-69
2022/04/09 08:54:42;;;;;;;7.10;6.80;;;;;;;25.08;30.00;99000.00;5006129;28;20120;-69
2022/04/09 08:57:08;;;;;;;7.30;7.00;;;;;;;24.63;30.44;98996.41;5000704;28;20088;-69
2022/04/09 08:59:34;;;;;;;7.38;7.07;;;;;;;25.67;29.90;99008.06;5003155;28;20453;-68
2022/04/09 09:02:00;;;;;;;7.50;7.20;;;;;;;25.61;28.76;99003.88;5005745;28;20026;-68
2022/04/09 09:04:25;;;;;;;7.50;7.20;;;;;;;26.05;28.62;99007.63;5015695;28;20080;-69
2022/04/09 09:06:51;;;;;;;7.10;6.80;;;;;;;26.63;27.78;99007.34;5025332;28;20060;-69
2022/04/09 09:09:32;;;;;;;7.30;7.00;;;;;;;25.85;27.93;98993.50;5003103;28;20128;-68
2022/04/09 09:12:03;;;;;;;7.70;7.40;;;;;;;26.29;27.60;99010.75;5009047;28;20076;-69
2022/04/09 09:14:33;;;;;;;7.25;6.95;;;;;;;25.41;28.39;98978.03;5010768;28;20038;-69
2022/04/09 09:17:01;;;;;;;6.93;6.63;;;;;;;25.74;27.59;99003.03;5003433;28;20037;-70
2022/04/09 09:19:47;;;;;;;7.32;7.03;;;;;;;25.31;28.31;98994.59;5000298;28;20072;-70
2022/04/09 09:22:13;;;;;;;7.35;7.05;;;;;;;25.06;29.05;99004.97;5004090;28;20148;-70
2022/04/09 09:24:39;;;;;;;7.20;6.90;;;;;;;25.65;28.57;98985.06;5014738;28;20038;-70
2022/04/09 09:27:05;;;;;;;7.28;6.97;;;;;;;25.51;28.94;98982.41;5012639;28;20037;-70
2022/04/09 09:29:32;;;;;;;7.00;6.70;;;;;;;26.46;27.36;98992.91;5008803;28;20057;-68
2022/04/09 09:32:00;;;;;;;7.20;6.90;;;;;;;26.67;26.73;98992.00;4999073;28;20031;-69
2022/04/09 09:34:26;;;;;;;7.03;6.72;;;;;;;26.16;27.17;98984.50;5004540;28;20033;-70
2022/04/09 09:36:53;;;;;;;7.07;6.78;;;;;;;25.99;27.65;98990.66;5008775;28;20045;-70
2022/04/09 09:39:20;;;;;;;7.18;6.88;;;;;;;25.30;27.97;98985.66;5011503;28;20541;-69
2022/04/09 09:41:50;;;;;;;7.60;7.30;;;;;;;25.21;28.57;98976.66;5014727;28;20026;-69
2022/04/09 09:44:19;;;;;;;7.22;6.93;;;;;;;25.11;27.65;98979.59;5007704;28;20489;-69
2022/04/09 09:46:47;;;;;;;7.50;7.20;;;;;;;25.54;27.52;98979.88;4999703;28;20119;-70
2022/04/09 09:49:13;;;;;;;7.50;7.20;;;;;;;25.68;27.30;98987.94;5020610;28;20077;-69
2022/04/09 09:51:39;;;;;;;6.90;6.60;;;;;;;24.88;28.11;98978.75;5007151;28;20057;-69
2022/04/09 09:54:06;;;;;;;7.15;6.85;;;;;;;24.84;28.45;98974.25;4993539;28;20023;-69
2022/04/09 09:56:33;;;;;;;7.28;6.97;;;;;;;25.30;27.67;98971.28;5003544;28;20026;-69
2022/04/09 09:59:00;;;;;;;7.40;7.10;;;;;;;25.93;26.84;98966.66;4993596;28;20050;-69
2022/04/09 10:01:27;;;;;;;7.15;6.85;;;;;;;25.32;27.48;98955.47;4999338;28;20041;-69
2022/04/09 10:03:54;;;;;;;7.78;7.47;;;;;;;25.40;27.60;98962.88;5001653;28;20025;-70
2022/04/09 10:06:21;;;;;;;7.28;6.97;;;;;;;25.10;28.29;98964.44;5006463;28;20030;-69
2022/04/09 10:08:47;;;;;;;7.13;6.82;;;;;;;24.69;28.94;98957.22;5005825;28;20504;-68
2022/04/09 10:11:16;;;;;;;7.10;6.80;;;;;;;25.11;28.27;98955.16;5001641;28;20038;-69
2022/04/09 10:13:43;;;;;;;7.63;7.32;;;;;;;25.18;28.25;98952.81;4988032;28;20035;-70
2022/04/09 10:16:11;;;;;;;7.22;6.93;;;;;;;25.38;28.45;98956.16;5006728;28;20025;-71
2022/04/09 10:18:37;;;;;;;7.40;7.10;;;;;;;25.19;28.45;98946.31;5004872;28;20018;-68
2022/04/09 10:21:03;;;;;;;7.32;7.03;;;;;;;25.10;28.21;98950.06;4995032;28;20034;-72
2022/04/09 10:23:32;;;;;;;7.13;6.82;;;;;;;23.86;29.55;98945.66;5002663;28;20080;-69
2022/04/09 10:26:01;;;;;;;7.18;6.88;;;;;;;24.35;29.05;98946.84;5007885;28;20025;-69
2022/04/09 10:28:36;;;;;;;7.05;6.75;;;;;;;24.75;28.58;98963.31;5001326;28;20037;-70
2022/04/09 10:31:25;;;;;;;7.63;7.32;;;;;;;24.79;28.56;98961.59;4996034;28;20022;-71
2022/04/09 10:33:57;;;;;;;7.35;7.05;;;;;;;24.78;28.51;98952.69;5008907;28;20117;-72
2022/04/09 10:36:45;;;;;;;7.40;7.10;;;;;;;24.83;28.36;98954.47;4991969;28;20113;-70
2022/04/09 10:39:39;;;;;;;7.10;6.80;;;;;;;24.98;28.48;98958.75;5021090;28;20030;-71
2022/04/09 10:42:08;;;;;;;7.18;6.88;;;;;;;24.75;28.78;98952.47;4993385;28;20084;-72
2022/04/09 10:44:43;;;;;;;7.07;6.78;;;;;;;24.38;29.23;98953.56;5025443;28;20061;-72
2022/04/09 10:47:10;;;;;;;7.20;6.90;;;;;;;24.46;29.64;98947.47;4986153;28;20030;-71
2022/04/09 10:49:37;;;;;;;7.10;6.80;;;;;;;24.60;29.21;98944.69;4991359;28;20031;-72
2022/04/09 10:52:04;;;;;;;7.45;7.15;;;;;;;24.60;29.26;98945.47;4992529;28;20033;-71
2022/04/09 10:54:29;;;;;;;6.95;6.65;;;;;;;24.03;29.65;98944.25;5000538;28;20022;-72
2022/04/09 10:57:05;;;;;;;7.03;6.72;;;;;;;24.26;29.53;98937.81;4994724;28;20034;-71
2022/04/09 10:59:33;;;;;;;7.47;7.18;;;;;;;24.61;29.35;98938.97;4983493;28;20038;-68
2022/04/09 11:01:59;;;;;;;7.10;6.80;;;;;;;24.40;29.47;98935.91;4995118;28;20092;-70
2022/04/09 11:04:36;;;;;;;7.63;7.32;;;;;;;24.57;28.84;98937.16;4998517;28;20378;-68
2022/04/09 11:07:03;;;;;;;6.95;6.65;;;;;;;24.01;30.05;98936.41;5022367;28;20117;-71
2022/04/09 11:09:42;;;;;;;7.25;6.95;;;;;;;23.99;29.87;98904.22;5004383;28;20036;-70
2022/04/09 11:12:08;;;;;;;7.15;6.85;;;;;;;24.13;29.76;98927.78;5000765;28;20030;-68
2022/04/09 11:14:43;;;;;;;7.00;6.70;;;;;;;23.95;29.98;98926.81;5030580;28;20120;-68
2022/04/09 11:17:15;;;;;;;7.57;7.28;;;;;;;24.58;29.07;98936.88;5004377;28;20057;-68
2022/04/09 11:19:41;;;;;;;7.28;6.97;;;;;;;24.42;28.58;98936.41;5003590;28;20556;-69
2022/04/09 11:22:08;;;;;;;7.38;7.07;;;;;;;24.50;28.06;98932.16;4994197;28;20045;-69
2022/04/09 11:24:38;;;;;;;7.32;7.03;;;;;;;24.28;28.71;98919.34;5005614;28;20037;-69
2022/04/09 11:27:03;;;;;;;7.65;7.35;;;;;;;24.68;27.99;98925.81;5004318;28;20109;-73
2022/04/09 11:29:36;;;;;;;7.10;6.80;;;;;;;24.62;28.58;98934.34;5002923;28;20105;-72
2022/04/09 11:32:03;;;;;;;7.50;7.20;;;;;;;24.66;28.73;98935.34;4991126;28;20443;-72